Time;durP1;ratioP1;P1;durP2;ratioP2;P2;SDS_P1;SDS_P2;PMS_P1;PMS_P2;Temp;Humidity;BMP_temperature;BMP_pressure;BME280_temperature;BME280_humidity;BME280_pressure;Samples;Min_cycle;Max_cycle;Signal;HPM_P1;HPM_P2
2023/06/08 00:01:52;;;;;;;12.23;9.63;;;17.50;99.90;;;;;;5112353;28;20038;-69
2023/06/08 00:04:17;;;;;;;11.00;9.82;;;17.60;99.90;;;;;;5112142;28;20427;-69
2023/06/08 00:06:43;;;;;;;12.27;9.43;;;17.50;99.90;;;;;;5112667;28;20024;-69
2023/06/08 00:09:09;;;;;;;14.57;10.20;;;17.50;99.90;;;;;;5116103;28;20468;-69
2023/06/08 00:11:35;;;;;;;17.55;10.27;;;17.50;99.90;;;;;;5116919;28;20063;-69
2023/06/08 00:14:01;;;;;;;12.05;9.20;;;17.50;99.90;;;;;;5116170;28;20039;-69
2023/06/08 00:16:29;;;;;;;14.90;9.65;;;17.40;99.90;;;;;;5116922;28;20414;-69
2023/06/08 00:18:56;;;;;;;13.55;9.85;;;17.40;99.90;;;;;;5116144;28;20031;-69
2023/06/08 00:21:23;;;;;;;11.40;9.13;;;17.40;99.90;;;;;;5116345;28;20483;-69
2023/06/08 00:23:50;;;;;;;13.20;9.48;;;17.40;99.90;;;;;;5116207;28;20084;-69
2023/06/08 00:26:16;;;;;;;10.38;9.23;;;17.40;99.90;;;;;;5116385;27;20099;-69
2023/06/08 00:28:42;;;;;;;12.48;9.48;;;17.40;99.90;;;;;;5116297;28;20119;-69
2023/06/08 00:31:07;;;;;;;13.20;8.80;;;17.40;99.90;;;;;;5115920;28;20034;-70
2023/06/08 00:33:34;;;;;;;15.02;8.82;;;17.30;99.90;;;;;;5116054;28;20023;-69
2023/06/08 00:36:02;;;;;;;9.88;8.88;;;17.30;99.90;;;;;;5115842;28;20107;-70
2023/06/08 00:38:28;;;;;;;10.15;8.57;;;17.30;99.90;;;;;;5116139;28;20059;-70
2023/06/08 00:40:54;;;;;;;9.60;7.72;;;17.30;99.90;;;;;;5115608;28;20062;-70
2023/06/08 00:43:19;;;;;;;11.15;7.95;;;17.20;99.90;;;;;;5116105;28;20533;-71
2023/06/08 00:45:45;;;;;;;15.20;8.75;;;17.20;99.90;;;;;;5116284;28;20040;-70
2023/06/08 00:48:11;;;;;;;10.32;8.43;;;17.20;99.90;;;;;;5115345;28;20110;-70
2023/06/08 00:50:36;;;;;;;10.35;8.48;;;17.20;99.90;;;;;;5115609;28;20377;-70
2023/06/08 00:53:02;;;;;;;9.38;8.23;;;17.20;99.90;;;;;;5115689;28;20036;-69
2023/06/08 00:55:33;;;;;;;11.98;7.90;;;17.10;99.90;;;;;;5116121;28;20031;-68
2023/06/08 00:58:00;;;;;;;11.98;8.63;;;17.10;99.90;;;;;;5115443;28;20028;-69
2023/06/08 01:00:27;;;;;;;8.63;7.72;;;17.10;99.90;;;;;;5115572;28;20379;-68
2023/06/08 01:02:55;;;;;;;11.82;7.82;;;17.10;99.90;;;;;;5115720;28;20034;-70
2023/06/08 01:05:21;;;;;;;10.18;7.97;;;17.00;99.90;;;;;;5115676;28;20024;-70
2023/06/08 01:08:08;;;;;;;10.52;7.43;;;17.00;99.90;;;;;;5115530;28;20031;-71
2023/06/08 01:10:41;;;;;;;8.73;7.80;;;17.00;99.90;;;;;;5115472;28;20036;-70
2023/06/08 01:13:26;;;;;;;9.40;7.95;;;17.00;99.90;;;;;;5115307;28;20069;-70
2023/06/08 01:16:00;;;;;;;9.93;7.47;;;17.00;99.90;;;;;;5115666;28;20024;-70
2023/06/08 01:18:32;;;;;;;8.05;7.00;;;17.00;99.90;;;;;;5115008;28;20054;-70
2023/06/08 01:21:30;;;;;;;9.13;7.85;;;16.90;99.90;;;;;;5114756;28;20443;-70
2023/06/08 01:24:14;;;;;;;14.27;7.80;;;16.90;99.90;;;;;;5102531;28;20084;-74
2023/06/08 01:26:42;;;;;;;10.18;8.02;;;16.90;99.90;;;;;;5115635;28;20023;-70
2023/06/08 01:29:09;;;;;;;8.18;7.38;;;16.90;99.90;;;;;;5114560;27;20460;-71
2023/06/08 01:31:38;;;;;;;8.00;7.15;;;16.90;99.90;;;;;;5115210;28;20059;-70
2023/06/08 01:34:05;;;;;;;14.85;8.13;;;16.90;99.90;;;;;;5114786;28;20372;-70
2023/06/08 01:36:46;;;;;;;9.40;7.85;;;16.90;99.90;;;;;;5113923;28;20031;-70
2023/06/08 01:39:36;;;;;;;8.23;7.43;;;16.90;99.90;;;;;;5114769;28;20024;-70
2023/06/08 01:42:05;;;;;;;8.75;7.85;;;16.90;99.90;;;;;;5114422;28;20034;-70
2023/06/08 01:44:43;;;;;;;9.70;8.10;;;16.90;99.90;;;;;;5114914;28;20483;-70
2023/06/08 01:47:11;;;;;;;9.48;7.93;;;16.90;99.90;;;;;;5114629;28;20092;-70
2023/06/08 01:49:37;;;;;;;8.65;7.15;;;16.90;99.90;;;;;;5114970;28;20024;-70
2023/06/08 01:52:04;;;;;;;9.18;8.15;;;16.90;99.90;;;;;;5111969;28;20046;-70
2023/06/08 01:54:29;;;;;;;8.55;7.60;;;16.90;99.90;;;;;;5114321;28;20036;-70
2023/06/08 01:56:55;;;;;;;14.55;8.55;;;16.90;99.90;;;;;;5114454;28;20378;-70
2023/06/08 01:59:21;;;;;;;10.93;8.55;;;16.90;99.90;;;;;;5114513;28;20027;-70
2023/06/08 02:01:46;;;;;;;11.68;9.20;;;16.90;99.90;;;;;;5114648;28;20425;-69
2023/06/08 02:04:12;;;;;;;10.25;8.38;;;16.80;99.90;;;;;;5113537;28;20034;-69
2023/06/08 02:06:37;;;;;;;12.85;8.40;;;16.80;99.90;;;;;;5113756;28;20031;-69
2023/06/08 02:09:03;;;;;;;12.27;8.50;;;16.80;99.90;;;;;;5113817;28;20020;-69
2023/06/08 02:11:29;;;;;;;9.88;8.30;;;16.80;99.90;;;;;;5113756;28;20069;-70
2023/06/08 02:13:54;;;;;;;9.18;8.15;;;16.80;99.90;;;;;;5113855;28;20039;-69
2023/06/08 02:16:20;;;;;;;10.55;9.10;;;16.70;99.90;;;;;;5113630;28;20264;-69
2023/06/08 02:18:46;;;;;;;10.20;9.10;;;16.70;99.90;;;;;;5113945;28;20503;-69
2023/06/08 02:21:13;;;;;;;9.82;8.68;;;16.70;99.90;;;;;;5113433;28;20055;-69
2023/06/08 02:23:39;;;;;;;11.77;8.90;;;16.70;99.90;;;;;;5113872;28;20028;-69
2023/06/08 02:26:07;;;;;;;11.25;9.98;;;16.70;99.90;;;;;;5113272;28;20023;-69
2023/06/08 02:28:33;;;;;;;11.40;9.30;;;16.70;99.90;;;;;;5113573;28;20094;-69
2023/06/08 02:30:59;;;;;;;12.38;9.32;;;16.70;99.90;;;;;;5113096;28;20548;-69
2023/06/08 02:33:24;;;;;;;10.95;9.80;;;16.70;99.90;;;;;;5113182;28;20077;-69
2023/06/08 02:35:50;;;;;;;11.50;9.45;;;16.60;99.90;;;;;;5113873;28;20024;-69
2023/06/08 02:38:16;;;;;;;14.63;9.90;;;16.60;99.90;;;;;;5112199;28;20038;-69
2023/06/08 02:40:42;;;;;;;12.65;9.45;;;16.60;99.90;;;;;;5113739;28;20042;-69
2023/06/08 02:43:10;;;;;;;13.15;9.90;;;16.50;99.90;;;;;;5113244;28;20384;-69
2023/06/08 02:45:37;;;;;;;10.23;9.23;;;16.50;99.90;;;;;;5113140;28;20063;-69
2023/06/08 02:48:03;;;;;;;11.55;10.35;;;16.50;99.90;;;;;;5113749;28;20413;-71
2023/06/08 02:50:29;;;;;;;13.70;9.40;;;16.60;99.90;;;;;;5112867;28;20039;-69
2023/06/08 02:52:54;;;;;;;13.57;9.75;;;16.50;99.90;;;;;;5113519;28;20027;-69
2023/06/08 02:55:20;;;;;;;10.60;9.07;;;16.50;99.90;;;;;;5112736;28;20035;-69
2023/06/08 02:57:49;;;;;;;10.82;9.18;;;16.50;99.90;;;;;;5113263;28;20035;-69
2023/06/08 03:00:15;;;;;;;10.20;8.75;;;16.50;99.90;;;;;;5112683;28;20035;-69
2023/06/08 03:02:41;;;;;;;10.20;9.20;;;16.40;99.90;;;;;;5113633;28;20023;-68
2023/06/08 03:05:07;;;;;;;15.15;9.88;;;16.40;99.90;;;;;;5113292;28;20027;-69
2023/06/08 03:07:40;;;;;;;11.27;9.68;;;16.40;99.90;;;;;;5113914;28;20027;-68
2023/06/08 03:10:06;;;;;;;12.73;9.57;;;16.40;99.90;;;;;;5113293;28;20464;-71
2023/06/08 03:12:32;;;;;;;10.93;9.80;;;16.50;99.90;;;;;;5113471;28;20031;-68
2023/06/08 03:14:58;;;;;;;12.02;9.95;;;16.40;99.90;;;;;;5113532;28;20084;-68
2023/06/08 03:17:24;;;;;;;10.48;9.38;;;16.40;99.90;;;;;;5112627;28;20529;-68
2023/06/08 03:19:51;;;;;;;14.50;11.00;;;16.30;99.90;;;;;;5113438;28;20030;-68
2023/06/08 03:22:19;;;;;;;12.90;10.55;;;16.40;99.90;;;;;;5112964;28;20032;-68
2023/06/08 03:24:48;;;;;;;12.98;10.80;;;16.30;99.90;;;;;;5113526;28;20028;-68
2023/06/08 03:27:15;;;;;;;13.90;11.00;;;16.30;99.90;;;;;;5112900;28;20080;-68
2023/06/08 03:29:40;;;;;;;13.23;10.60;;;16.40;99.90;;;;;;5113207;28;20055;-70
2023/06/08 03:32:06;;;;;;;12.98;10.85;;;16.40;99.90;;;;;;5113151;28;20073;-67
2023/06/08 03:34:32;;;;;;;14.75;10.73;;;16.40;99.90;;;;;;5113209;28;20541;-70
2023/06/08 03:36:58;;;;;;;12.63;11.43;;;16.40;99.90;;;;;;5113209;28;20028;-70
2023/06/08 03:39:24;;;;;;;15.43;12.20;;;16.30;99.90;;;;;;5112820;28;20055;-69
2023/06/08 03:41:50;;;;;;;14.02;11.15;;;16.40;99.90;;;;;;5113010;28;20456;-68
2023/06/08 03:44:15;;;;;;;15.50;11.65;;;16.40;99.90;;;;;;5112601;28;20051;-68
2023/06/08 03:46:41;;;;;;;13.25;11.85;;;16.30;99.90;;;;;;5113160;28;20438;-70
2023/06/08 03:49:07;;;;;;;14.75;11.43;;;16.40;99.90;;;;;;5113067;28;20461;-68
2023/06/08 03:51:33;;;;;;;16.25;11.43;;;16.40;99.90;;;;;;5112124;28;20035;-69
2023/06/08 03:53:58;;;;;;;13.23;11.68;;;16.40;99.90;;;;;;5112897;28;20085;-69
2023/06/08 03:56:25;;;;;;;13.13;11.10;;;16.50;99.90;;;;;;5112531;28;20032;-70
2023/06/08 03:58:51;;;;;;;13.68;12.30;;;16.50;99.90;;;;;;5113043;28;20024;-69
2023/06/08 04:01:17;;;;;;;14.05;12.00;;;16.60;99.90;;;;;;5112444;28;20032;-70
2023/06/08 04:03:43;;;;;;;13.25;11.32;;;16.60;99.90;;;;;;5112256;28;20122;-70
2023/06/08 04:06:09;;;;;;;13.02;11.63;;;16.70;99.90;;;;;;5112902;28;20035;-69
2023/06/08 04:08:40;;;;;;;13.73;11.10;;;16.70;99.90;;;;;;5112084;28;20028;-70
2023/06/08 04:11:09;;;;;;;16.33;11.95;;;16.70;99.90;;;;;;5111974;28;20067;-69
2023/06/08 04:13:36;;;;;;;13.93;11.85;;;16.80;99.90;;;;;;5112069;28;20031;-70
2023/06/08 04:16:12;;;;;;;13.40;11.00;;;16.90;99.90;;;;;;5112687;28;20024;-69
2023/06/08 04:18:41;;;;;;;13.38;11.23;;;17.00;99.90;;;;;;5112469;28;20023;-69
2023/06/08 04:21:07;;;;;;;12.85;11.07;;;17.00;99.90;;;;;;5112531;28;20040;-69
2023/06/08 04:23:34;;;;;;;12.80;10.82;;;17.10;99.90;;;;;;5111961;28;20102;-70
2023/06/08 04:26:08;;;;;;;12.05;10.88;;;17.10;99.90;;;;;;5112498;28;20031;-69
2023/06/08 04:28:34;;;;;;;11.90;10.65;;;17.20;99.90;;;;;;5111988;28;20020;-70
2023/06/08 04:31:01;;;;;;;11.50;10.30;;;17.20;99.90;;;;;;5112289;28;20031;-69
2023/06/08 04:33:27;;;;;;;11.30;10.13;;;17.20;99.90;;;;;;5111791;28;20039;-70
2023/06/08 04:35:53;;;;;;;11.48;10.27;;;17.30;99.90;;;;;;5112075;28;20053;-70
2023/06/08 04:38:20;;;;;;;15.85;10.20;;;17.30;99.90;;;;;;5112198;28;20051;-70
2023/06/08 04:40:53;;;;;;;15.18;10.40;;;17.40;99.90;;;;;;5112330;28;20020;-69
2023/06/08 04:43:25;;;;;;;11.43;10.18;;;17.50;99.90;;;;;;5110761;28;20025;-70
2023/06/08 04:46:00;;;;;;;14.52;10.07;;;17.40;99.90;;;;;;5110149;28;20093;-70
2023/06/08 04:48:27;;;;;;;11.43;10.32;;;17.50;99.90;;;;;;5112196;28;20089;-69
2023/06/08 04:50:54;;;;;;;10.32;9.32;;;17.50;99.90;;;;;;5112585;28;20027;-68
2023/06/08 04:53:23;;;;;;;17.55;10.00;;;17.50;99.90;;;;;;5112509;28;20031;-68
2023/06/08 04:55:57;;;;;;;12.55;9.57;;;17.40;99.90;;;;;;5115895;28;20118;-68
2023/06/08 04:58:24;;;;;;;10.10;9.10;;;17.50;99.90;;;;;;5115370;28;20032;-68
2023/06/08 05:00:50;;;;;;;12.65;9.55;;;17.50;99.90;;;;;;5115930;28;20057;-68
2023/06/08 05:03:15;;;;;;;9.73;8.70;;;17.60;99.90;;;;;;5115370;28;20058;-71
2023/06/08 05:05:42;;;;;;;10.98;9.88;;;17.70;99.90;;;;;;5115912;28;20028;-69
2023/06/08 05:08:08;;;;;;;10.32;9.32;;;17.60;99.90;;;;;;5115879;28;20130;-70
2023/06/08 05:10:33;;;;;;;11.38;8.88;;;17.60;99.90;;;;;;5114082;28;20023;-70
2023/06/08 05:12:59;;;;;;;12.88;9.57;;;17.60;99.90;;;;;;5115274;28;20031;-70
2023/06/08 05:15:26;;;;;;;11.00;8.98;;;17.70;99.90;;;;;;5115029;28;20391;-70
2023/06/08 05:17:52;;;;;;;10.45;9.35;;;17.70;99.90;;;;;;5115402;28;20020;-70
2023/06/08 05:20:19;;;;;;;10.48;9.38;;;17.70;99.90;;;;;;5115011;28;20028;-71
2023/06/08 05:22:44;;;;;;;11.77;9.70;;;17.70;99.90;;;;;;5115277;28;20023;-69
2023/06/08 05:25:10;;;;;;;10.35;9.35;;;17.70;99.90;;;;;;5115202;28;20475;-68
2023/06/08 05:27:37;;;;;;;10.35;9.32;;;17.80;99.90;;;;;;5114765;28;20059;-71
2023/06/08 05:30:03;;;;;;;13.02;10.15;;;17.70;99.90;;;;;;5115135;28;20027;-69
2023/06/08 05:32:29;;;;;;;13.48;9.95;;;17.70;99.90;;;;;;5114559;28;20082;-70
2023/06/08 05:34:55;;;;;;;10.35;9.20;;;17.80;99.90;;;;;;5114946;28;20508;-70
2023/06/08 05:37:20;;;;;;;14.90;9.50;;;17.80;99.90;;;;;;5114365;28;20452;-70
2023/06/08 05:39:46;;;;;;;12.75;9.50;;;17.80;99.90;;;;;;5115251;28;20032;-70
2023/06/08 05:42:12;;;;;;;10.65;9.45;;;17.80;99.90;;;;;;5114899;28;20434;-69
2023/06/08 05:44:37;;;;;;;10.20;9.20;;;17.90;99.90;;;;;;5114346;28;20020;-70
2023/06/08 05:47:03;;;;;;;11.07;9.32;;;17.90;99.90;;;;;;5114459;28;20051;-70
2023/06/08 05:49:29;;;;;;;11.25;10.05;;;17.90;99.90;;;;;;5114330;28;20024;-69
2023/06/08 05:51:54;;;;;;;11.95;10.05;;;17.90;99.90;;;;;;5114731;28;20474;-69
2023/06/08 05:54:20;;;;;;;11.85;9.95;;;17.90;99.90;;;;;;5114270;28;20380;-74
2023/06/08 05:56:45;;;;;;;16.73;9.82;;;17.90;99.90;;;;;;5114082;28;20015;-69
2023/06/08 05:59:11;;;;;;;11.10;10.00;;;17.90;99.90;;;;;;5114319;28;20027;-70
2023/06/08 06:01:37;;;;;;;12.73;10.63;;;18.00;99.90;;;;;;5113663;28;20043;-70
2023/06/08 06:04:02;;;;;;;13.32;10.48;;;18.00;99.90;;;;;;5114443;28;20028;-70
2023/06/08 06:06:29;;;;;;;11.63;10.43;;;18.00;99.90;;;;;;5113106;28;20528;-70
2023/06/08 06:08:54;;;;;;;12.05;10.85;;;18.00;99.90;;;;;;5113173;28;20418;-69
2023/06/08 06:11:20;;;;;;;11.75;10.63;;;18.10;99.90;;;;;;5112784;28;20036;-73
2023/06/08 06:13:46;;;;;;;15.80;11.30;;;18.20;99.90;;;;;;5113880;28;20036;-70
2023/06/08 06:16:11;;;;;;;12.90;11.30;;;18.10;99.90;;;;;;5114112;28;20459;-70
2023/06/08 06:18:37;;;;;;;16.50;13.15;;;18.20;99.90;;;;;;5113371;28;20019;-70
2023/06/08 06:21:03;;;;;;;15.48;13.50;;;18.20;99.90;;;;;;5113928;28;20088;-70
2023/06/08 06:23:28;;;;;;;16.13;14.43;;;18.20;99.90;;;;;;5113810;28;20031;-70
2023/06/08 06:25:54;;;;;;;18.38;14.38;;;18.30;99.90;;;;;;5113967;28;20069;-70
2023/06/08 06:28:19;;;;;;;17.10;13.75;;;18.30;99.90;;;;;;5114032;28;20019;-70
2023/06/08 06:30:45;;;;;;;16.27;13.13;;;18.40;99.90;;;;;;5113063;28;20050;-70
2023/06/08 06:33:10;;;;;;;16.63;13.98;;;18.40;99.90;;;;;;5114088;28;20346;-69
2023/06/08 06:35:36;;;;;;;16.90;13.05;;;18.40;99.90;;;;;;5112874;28;20536;-69
2023/06/08 06:38:02;;;;;;;20.88;14.63;;;18.40;99.90;;;;;;5113743;28;20024;-69
2023/06/08 06:40:27;;;;;;;16.00;14.32;;;18.50;99.90;;;;;;5113316;28;20427;-70
2023/06/08 06:42:53;;;;;;;19.73;15.07;;;18.60;99.90;;;;;;5113549;28;20113;-69
2023/06/08 06:45:18;;;;;;;16.25;14.65;;;18.70;99.90;;;;;;5112196;28;20030;-69
2023/06/08 06:47:44;;;;;;;17.90;15.45;;;18.70;99.90;;;;;;5113020;28;20165;-70
2023/06/08 06:50:10;;;;;;;21.60;15.02;;;18.70;99.90;;;;;;5113605;28;20027;-70
2023/06/08 06:52:36;;;;;;;16.02;14.43;;;18.70;99.90;;;;;;5112980;28;20028;-70
2023/06/08 06:55:02;;;;;;;18.00;15.07;;;18.80;99.90;;;;;;5113382;28;20030;-71
2023/06/08 06:57:31;;;;;;;16.85;15.07;;;18.80;99.90;;;;;;5112848;28;20027;-70
2023/06/08 06:59:57;;;;;;;16.27;14.45;;;18.90;99.90;;;;;;5113336;28;20391;-69
2023/06/08 07:02:23;;;;;;;16.90;14.00;;;19.10;99.90;;;;;;5113280;28;20028;-75
2023/06/08 07:04:52;;;;;;;15.05;13.30;;;19.30;99.90;;;;;;5113395;28;20452;-69
2023/06/08 07:07:18;;;;;;;15.73;12.95;;;19.40;99.90;;;;;;5113461;28;20114;-68
2023/06/08 07:09:44;;;;;;;14.05;12.60;;;19.40;99.90;;;;;;5112967;28;20111;-68
2023/06/08 07:12:10;;;;;;;13.25;11.95;;;19.70;99.90;;;;;;5113293;28;20027;-69
2023/06/08 07:14:36;;;;;;;12.57;11.35;;;20.30;99.90;;;;;;5113017;28;20035;-69
2023/06/08 07:17:01;;;;;;;12.05;10.27;;;20.90;99.90;;;;;;5112991;28;20372;-69
2023/06/08 07:19:27;;;;;;;13.10;10.32;;;21.40;99.90;;;;;;5112846;28;20035;-69
2023/06/08 07:21:54;;;;;;;12.73;11.43;;;21.70;99.90;;;;;;5112087;28;20028;-69
2023/06/08 07:24:20;;;;;;;19.98;12.40;;;21.80;99.90;;;;;;5113005;28;20432;-69
2023/06/08 07:26:46;;;;;;;15.20;11.55;;;21.60;99.90;;;;;;5112946;28;20110;-68
2023/06/08 07:29:13;;;;;;;17.20;12.70;;;21.50;99.90;;;;;;5113447;28;20114;-68
2023/06/08 07:31:39;;;;;;;15.55;13.68;;;21.60;99.90;;;;;;5112492;28;20043;-69
2023/06/08 07:34:06;;;;;;;15.32;13.18;;;21.50;99.90;;;;;;5113164;28;20027;-69
2023/06/08 07:36:34;;;;;;;16.85;13.95;;;21.40;99.90;;;;;;5111574;28;20027;-69
2023/06/08 07:39:00;;;;;;;16.08;14.38;;;21.40;99.90;;;;;;5113136;28;20032;-68
2023/06/08 07:41:26;;;;;;;16.98;14.02;;;21.30;99.90;;;;;;5112909;28;20031;-68
2023/06/08 07:43:51;;;;;;;15.85;14.15;;;21.20;99.90;;;;;;5113287;28;20027;-68
2023/06/08 07:46:17;;;;;;;18.92;15.02;;;21.20;99.90;;;;;;5112787;28;20056;-68
2023/06/08 07:48:43;;;;;;;16.58;14.82;;;21.10;99.90;;;;;;5112692;28;20023;-69
2023/06/08 07:51:09;;;;;;;18.88;15.80;;;21.10;99.90;;;;;;5112260;28;20027;-68
2023/06/08 07:53:38;;;;;;;19.60;16.08;;;20.90;99.90;;;;;;5112732;28;20036;-68
2023/06/08 07:56:05;;;;;;;18.83;16.83;;;20.80;99.90;;;;;;5112648;28;20019;-68
2023/06/08 07:58:31;;;;;;;22.45;17.23;;;20.80;99.90;;;;;;5112535;28;20375;-68
2023/06/08 08:00:58;;;;;;;21.17;17.45;;;20.60;99.90;;;;;;5113072;28;20055;-67
2023/06/08 08:03:23;;;;;;;21.92;18.33;;;20.60;99.90;;;;;;5112719;28;20023;-69
2023/06/08 08:05:49;;;;;;;20.60;18.38;;;20.60;99.90;;;;;;5112284;28;20481;-69
2023/06/08 08:08:15;;;;;;;23.00;18.17;;;20.70;99.90;;;;;;5112607;28;20043;-68
2023/06/08 08:10:41;;;;;;;23.58;18.33;;;20.60;99.90;;;;;;5112602;28;20071;-69
2023/06/08 08:13:08;;;;;;;23.30;18.80;;;20.60;99.90;;;;;;5112623;28;20059;-69
2023/06/08 08:15:34;;;;;;;20.50;18.00;;;20.80;99.90;;;;;;5112467;28;20015;-70
2023/06/08 08:18:00;;;;;;;22.92;18.52;;;20.80;99.90;;;;;;5111740;28;20099;-69
2023/06/08 08:20:26;;;;;;;21.98;18.58;;;20.80;99.90;;;;;;5112555;28;20039;-69
2023/06/08 08:22:52;;;;;;;24.92;18.70;;;20.80;99.90;;;;;;5112376;28;20068;-69
2023/06/08 08:25:17;;;;;;;23.67;18.27;;;20.80;99.90;;;;;;5112846;28;20020;-69
2023/06/08 08:27:43;;;;;;;21.88;18.25;;;20.90;99.90;;;;;;5112476;28;20474;-69
2023/06/08 08:30:09;;;;;;;21.85;18.80;;;21.00;99.90;;;;;;5116132;28;20046;-69
2023/06/08 08:32:35;;;;;;;22.15;18.35;;;21.10;99.90;;;;;;5116031;28;20511;-69
2023/06/08 08:35:01;;;;;;;22.30;17.52;;;21.30;99.90;;;;;;5116814;28;20031;-69
2023/06/08 08:37:26;;;;;;;17.48;15.63;;;21.50;99.90;;;;;;5116484;28;20122;-69
2023/06/08 08:39:52;;;;;;;19.88;16.52;;;21.60;99.90;;;;;;5116152;28;20051;-69
2023/06/08 08:42:23;;;;;;;23.92;16.50;;;21.70;99.90;;;;;;5116431;28;20374;-70
2023/06/08 08:44:54;;;;;;;15.98;14.13;;;21.80;99.90;;;;;;5116050;28;20031;-69
2023/06/08 08:47:24;;;;;;;19.20;15.10;;;22.00;99.90;;;;;;5115981;28;20044;-69
2023/06/08 08:50:06;;;;;;;17.88;14.80;;;22.10;99.90;;;;;;5115898;28;20023;-69
2023/06/08 08:52:39;;;;;;;19.00;14.15;;;22.10;99.90;;;;;;5115854;28;20070;-72
2023/06/08 08:55:05;;;;;;;18.00;13.13;;;22.20;99.90;;;;;;5116420;28;20402;-69
2023/06/08 08:57:31;;;;;;;16.40;14.02;;;22.40;99.90;;;;;;5116288;28;20027;-69
2023/06/08 08:59:58;;;;;;;17.90;14.07;;;22.40;99.90;;;;;;5116439;28;20085;-69
2023/06/08 09:02:24;;;;;;;16.50;14.30;;;22.50;99.90;;;;;;5115824;28;20032;-68
2023/06/08 09:04:52;;;;;;;21.88;15.93;;;22.70;99.90;;;;;;5115647;28;20380;-69
2023/06/08 09:07:20;;;;;;;19.30;15.50;;;22.70;99.90;;;;;;5115948;28;20028;-69
2023/06/08 09:10:14;;;;;;;19.58;16.25;;;22.60;99.90;;;;;;5115176;28;20509;-69
2023/06/08 09:12:44;;;;;;;20.40;16.42;;;22.50;99.90;;;;;;5115228;28;20032;-69
2023/06/08 09:15:13;;;;;;;20.40;15.15;;;22.50;99.90;;;;;;5115979;28;20035;-68
2023/06/08 09:17:40;;;;;;;18.25;16.40;;;22.40;99.90;;;;;;5115309;28;20031;-69
2023/06/08 09:20:10;;;;;;;18.85;16.48;;;22.40;99.90;;;;;;5115887;28;20028;-68
2023/06/08 09:22:36;;;;;;;21.08;17.33;;;22.30;99.90;;;;;;5115251;28;20024;-69
2023/06/08 09:25:06;;;;;;;19.98;15.38;;;22.40;99.90;;;;;;5115729;28;20028;-69
2023/06/08 09:27:32;;;;;;;20.80;16.92;;;22.50;99.90;;;;;;5115565;28;20051;-68
2023/06/08 09:30:00;;;;;;;20.38;16.55;;;22.60;99.90;;;;;;5115170;28;20044;-68
2023/06/08 09:32:36;;;;;;;18.13;16.13;;;22.50;99.90;;;;;;5115617;28;20035;-68
2023/06/08 09:35:03;;;;;;;18.10;15.65;;;22.50;99.90;;;;;;5116182;28;20039;-68
2023/06/08 09:37:32;;;;;;;19.48;15.30;;;22.60;99.90;;;;;;5116569;28;20027;-70
2023/06/08 09:40:07;;;;;;;16.92;14.23;;;22.60;99.90;;;;;;5115172;28;20020;-69
2023/06/08 09:42:50;;;;;;;14.65;13.10;;;22.70;99.90;;;;;;5115650;28;20024;-68
2023/06/08 09:45:17;;;;;;;19.67;12.40;;;22.70;99.90;;;;;;5115584;28;20398;-69
2023/06/08 09:47:43;;;;;;;16.73;14.52;;;22.70;99.90;;;;;;5115071;28;20054;-70
2023/06/08 09:50:10;;;;;;;18.17;14.10;;;22.70;99.90;;;;;;5115304;28;20027;-70
2023/06/08 09:52:37;;;;;;;16.15;13.20;;;22.90;99.90;;;;;;5113273;28;20041;-75
2023/06/08 09:55:04;;;;;;;14.32;11.43;;;22.80;99.90;;;;;;5114951;28;20536;-69
2023/06/08 09:57:37;;;;;;;14.52;12.30;;;22.90;99.90;;;;;;5112347;28;20476;-69
2023/06/08 10:00:20;;;;;;;13.45;12.05;;;23.00;99.90;;;;;;5094415;28;20027;-69
2023/06/08 10:03:22;;;;;;;12.88;10.52;;;22.90;99.90;;;;;;5098779;28;20472;-69
2023/06/08 10:05:48;;;;;;;11.75;10.55;;;22.90;99.90;;;;;;5114527;28;20024;-69
2023/06/08 10:08:21;;;;;;;12.23;10.90;;;23.00;99.90;;;;;;5114843;28;20452;-69
2023/06/08 10:10:47;;;;;;;11.43;9.52;;;23.00;99.90;;;;;;5114364;28;20031;-68
2023/06/08 10:13:14;;;;;;;12.23;9.95;;;23.00;99.90;;;;;;5114343;28;20584;-68
2023/06/08 10:15:41;;;;;;;11.00;9.73;;;22.90;99.90;;;;;;5113869;28;20024;-68
2023/06/08 10:18:08;;;;;;;10.57;8.98;;;22.80;99.90;;;;;;5114611;28;20028;-68
2023/06/08 10:20:35;;;;;;;11.52;9.70;;;22.80;99.90;;;;;;5113445;28;20032;-68
2023/06/08 10:23:02;;;;;;;13.50;10.55;;;22.80;99.90;;;;;;5114079;27;20099;-68
2023/06/08 10:25:30;;;;;;;11.43;10.13;;;22.80;99.90;;;;;;5114416;28;20099;-68
2023/06/08 10:28:03;;;;;;;11.77;10.57;;;22.90;99.90;;;;;;5113988;28;20024;-68
2023/06/08 10:30:41;;;;;;;13.57;10.18;;;23.00;99.90;;;;;;5114021;28;20448;-68
2023/06/08 10:33:12;;;;;;;12.02;9.38;;;22.90;99.90;;;;;;5114450;28;20073;-69
2023/06/08 10:35:40;;;;;;;;;;;23.00;99.90;;;;;;5114954;28;20024;-69
2023/06/08 10:38:15;;;;;;;11.80;10.60;;;22.90;99.90;;;;;;5114184;28;19903;-69
2023/06/08 10:40:50;;;;;;;12.82;10.48;;;22.90;99.90;;;;;;5113769;28;20023;-70
2023/06/08 10:43:16;;;;;;;14.73;10.23;;;23.00;99.90;;;;;;5114210;28;20051;-68
2023/06/08 10:45:45;;;;;;;13.45;10.18;;;23.00;99.90;;;;;;5113589;28;20046;-69
2023/06/08 10:48:15;;;;;;;11.27;9.80;;;23.00;99.90;;;;;;5114066;28;20028;-69
2023/06/08 10:50:45;;;;;;;11.38;10.18;;;23.10;99.90;;;;;;5113150;28;20059;-69
2023/06/08 10:53:11;;;;;;;10.00;9.00;;;23.00;99.90;;;;;;5113990;28;20042;-68
2023/06/08 10:55:37;;;;;;;9.75;8.75;;;23.00;99.90;;;;;;5113885;28;20110;-69
2023/06/08 10:58:21;;;;;;;9.88;8.88;;;23.10;99.90;;;;;;5113066;28;20418;-69
2023/06/08 11:00:52;;;;;;;11.23;9.57;;;23.10;99.90;;;;;;5113043;28;20499;-69
2023/06/08 11:03:18;;;;;;;;;;;23.20;99.90;;;;;;5114152;28;20027;-69
2023/06/08 11:05:48;;;;;;;11.35;8.20;;;23.40;99.90;;;;;;5112069;28;19933;-69
2023/06/08 11:08:13;;;;;;;10.32;8.68;;;23.30;99.90;;;;;;5112241;28;20081;-69
2023/06/08 11:10:40;;;;;;;8.82;7.28;;;23.30;99.90;;;;;;5113767;28;20090;-68
2023/06/08 11:13:16;;;;;;;8.75;7.70;;;23.40;99.90;;;;;;5113350;28;20062;-68
2023/06/08 11:15:48;;;;;;;8.60;7.72;;;23.40;99.90;;;;;;5113376;28;20043;-70
2023/06/08 11:18:18;;;;;;;11.63;8.70;;;23.40;99.90;;;;;;5113500;28;20028;-69
2023/06/08 11:20:44;;;;;;;11.15;9.10;;;23.40;99.90;;;;;;5113024;28;20088;-69
2023/06/08 11:23:11;;;;;;;9.38;8.23;;;23.50;99.90;;;;;;5113269;28;20027;-68
2023/06/08 11:25:38;;;;;;;8.27;7.47;;;23.50;99.90;;;;;;5113187;28;20024;-69
2023/06/08 11:28:07;;;;;;;7.72;6.93;;;23.60;99.90;;;;;;5112960;28;20103;-69
2023/06/08 11:30:34;;;;;;;6.78;6.15;;;23.60;99.90;;;;;;5113303;28;20153;-69
2023/06/08 11:33:03;;;;;;;8.15;7.32;;;23.40;99.90;;;;;;5112861;28;20035;-68
2023/06/08 11:35:29;;;;;;;12.77;11.35;;;23.50;99.90;;;;;;5113068;28;20440;-69
2023/06/08 11:37:59;;;;;;;13.02;11.45;;;23.30;99.90;;;;;;5111476;28;20089;-69
2023/06/08 11:40:25;;;;;;;13.95;12.35;;;23.10;99.90;;;;;;5112966;28;20476;-68
2023/06/08 11:42:52;;;;;;;14.80;12.13;;;23.00;99.90;;;;;;5112764;28;20028;-68
2023/06/08 11:45:18;;;;;;;14.05;12.05;;;22.80;99.90;;;;;;5113518;28;20032;-68
2023/06/08 11:47:44;;;;;;;14.40;12.05;;;22.60;99.90;;;;;;5112515;28;20054;-69
2023/06/08 11:50:12;;;;;;;15.27;12.00;;;22.60;99.90;;;;;;5113187;28;20027;-68
2023/06/08 11:52:39;;;;;;;12.18;11.00;;;22.50;99.90;;;;;;5112541;28;20034;-69
2023/06/08 11:55:15;;;;;;;14.02;11.50;;;22.50;99.90;;;;;;5112659;28;20084;-69
2023/06/08 11:57:44;;;;;;;14.13;11.80;;;22.40;99.90;;;;;;5112299;28;20383;-68
2023/06/08 12:00:17;;;;;;;16.00;12.48;;;22.50;99.90;;;;;;5112863;28;20072;-68
2023/06/08 12:02:45;;;;;;;14.55;11.32;;;22.40;99.90;;;;;;5114637;28;20043;-69
2023/06/08 12:05:20;;;;;;;12.30;11.07;;;22.50;99.90;;;;;;5117109;28;20028;-68
2023/06/08 12:08:15;;;;;;;12.43;11.23;;;22.30;99.90;;;;;;5116587;28;20426;-74
2023/06/08 12:10:43;;;;;;;12.43;10.93;;;22.40;99.90;;;;;;5115157;28;20078;-69
2023/06/08 12:13:15;;;;;;;14.05;11.70;;;22.40;99.90;;;;;;5116671;27;20066;-69
2023/06/08 12:15:48;;;;;;;19.30;15.65;;;22.30;99.90;;;;;;5117070;28;20024;-69
2023/06/08 12:18:18;;;;;;;16.13;13.82;;;22.20;99.90;;;;;;5116951;28;20027;-69
2023/06/08 12:20:46;;;;;;;16.55;14.52;;;22.20;99.90;;;;;;5117174;28;20341;-68
2023/06/08 12:23:12;;;;;;;20.17;16.55;;;22.30;99.90;;;;;;5116235;28;20496;-68
2023/06/08 12:25:39;;;;;;;17.27;14.88;;;22.20;99.90;;;;;;5116821;28;20027;-69
2023/06/08 12:28:05;;;;;;;18.50;14.95;;;22.10;99.90;;;;;;5116353;28;20488;-69
2023/06/08 12:30:31;;;;;;;17.25;15.30;;;22.00;99.90;;;;;;5115440;28;20133;-69
2023/06/08 12:32:58;;;;;;;18.85;16.95;;;21.90;99.90;;;;;;5115959;28;20043;-69
2023/06/08 12:35:24;;;;;;;21.13;16.08;;;21.90;99.90;;;;;;5116606;28;20118;-69
2023/06/08 12:37:50;;;;;;;17.75;15.70;;;21.80;99.90;;;;;;5116215;28;20131;-70